createdAt,value
2023-05-14T00:00:15.037Z,28.88
2023-05-14T00:02:18.680Z,31.10
2023-05-14T00:04:20.986Z,28.40
2023-05-14T00:06:23.016Z,29.85
2023-05-14T00:08:25.061Z,25.90
2023-05-14T00:10:27.484Z,30.58
2023-05-14T00:12:30.117Z,29.08
2023-05-14T00:14:32.121Z,25.80
2023-05-14T00:16:34.226Z,28.88
2023-05-14T00:18:37.765Z,32.63
2023-05-14T00:20:40.586Z,33.17
2023-05-14T00:22:42.710Z,26.27
2023-05-14T00:24:44.770Z,32.63
2023-05-14T00:26:46.677Z,24.25
2023-05-14T00:28:49.155Z,29.38
2023-05-14T00:30:51.901Z,26.67
2023-05-14T00:32:54.024Z,27.20
2023-05-14T00:34:57.794Z,25.90
2023-05-14T00:36:59.935Z,24.48
2023-05-14T00:39:02.033Z,27.65
2023-05-14T00:41:04.249Z,25.77
2023-05-14T00:43:06.277Z,25.40
2023-05-14T00:45:09.493Z,31.05
2023-05-14T00:47:11.548Z,27.17
2023-05-14T00:49:13.826Z,31.70
2023-05-14T00:51:17.834Z,17.90
2023-05-14T00:53:21.079Z,32.40
2023-05-14T00:55:23.349Z,31.60
2023-05-14T00:57:25.250Z,33.53
2023-05-14T00:59:27.626Z,25.10
2023-05-14T01:01:29.812Z,24.15
2023-05-14T01:03:32.288Z,28.33
2023-05-14T01:05:53.944Z,28.95
2023-05-14T01:08:03.279Z,27.17
2023-05-14T01:10:11.267Z,28.70
2023-05-14T01:12:19.682Z,29.17
2023-05-14T01:14:27.854Z,30.98
2023-05-14T01:16:31.842Z,25.88
2023-05-14T01:18:34.408Z,27.95
2023-05-14T01:20:36.608Z,29.35
2023-05-14T01:22:40.014Z,33.05
2023-05-14T01:24:42.123Z,28.00
2023-05-14T01:26:44.252Z,31.83
2023-05-14T01:28:48.057Z,26.35
2023-05-14T01:31:01.017Z,30.73
2023-05-14T01:33:06.534Z,32.85
2023-05-14T01:35:10.330Z,30.27
2023-05-14T01:37:13.878Z,33.25
2023-05-14T01:39:19.931Z,35.60
2023-05-14T01:41:23.622Z,35.83
2023-05-14T01:43:26.022Z,29.10
2023-05-14T01:45:28.123Z,32.03
2023-05-14T01:47:30.288Z,33.90
2023-05-14T01:49:32.626Z,32.95
2023-05-14T01:51:34.601Z,37.40
2023-05-14T01:53:36.585Z,34.63
2023-05-14T01:55:39.883Z,35.78
2023-05-14T01:57:41.811Z,36.10
2023-05-14T01:59:43.770Z,37.88
2023-05-14T02:01:45.851Z,32.75
2023-05-14T02:03:48.041Z,38.40
2023-05-14T02:05:50.138Z,38.50
2023-05-14T02:07:52.058Z,35.55
2023-05-14T02:09:54.021Z,37.28
2023-05-14T02:11:57.338Z,37.50
2023-05-14T02:13:59.460Z,38.25
2023-05-14T02:16:01.393Z,37.42
2023-05-14T02:18:03.435Z,39.15
2023-05-14T02:20:06.988Z,38.53
2023-05-14T02:22:09.471Z,43.63
2023-05-14T02:24:11.482Z,36.22
2023-05-14T02:26:13.561Z,35.13
2023-05-14T02:28:17.201Z,36.67
2023-05-14T02:30:19.588Z,40.67
2023-05-14T02:32:21.685Z,38.53
2023-05-14T02:34:23.849Z,36.03
2023-05-14T02:36:25.910Z,37.40
2023-05-14T02:38:27.918Z,39.38
2023-05-14T02:40:30.089Z,40.75
2023-05-14T02:42:32.335Z,48.97
2023-05-14T02:44:35.855Z,39.30
2023-05-14T02:46:37.942Z,36.08
2023-05-14T02:48:39.964Z,36.65
2023-05-14T02:50:42.250Z,41.97
2023-05-14T02:52:44.258Z,30.98
2023-05-14T02:54:46.216Z,35.85
2023-05-14T02:56:48.350Z,34.78
2023-05-14T02:58:50.255Z,36.17
2023-05-14T03:00:53.625Z,44.75
2023-05-14T03:02:56.079Z,39.15
2023-05-14T03:04:58.502Z,43.08
2023-05-14T03:07:00.616Z,36.35
2023-05-14T03:09:02.716Z,35.35
2023-05-14T03:11:04.955Z,41.50
2023-05-14T03:13:06.941Z,33.25
2023-05-14T03:15:10.046Z,40.33
2023-05-14T03:17:13.497Z,39.67
2023-05-14T03:19:15.700Z,42.47
2023-05-14T03:21:17.891Z,37.58
2023-05-14T03:23:20.768Z,39.88
2023-05-14T03:25:22.860Z,34.58
2023-05-14T03:27:24.817Z,40.08
2023-05-14T03:29:26.949Z,43.78
2023-05-14T03:31:28.951Z,37.88
2023-05-14T03:33:32.409Z,40.88
2023-05-14T03:35:34.358Z,48.40
2023-05-14T03:37:36.316Z,41.33
2023-05-14T03:39:38.314Z,38.33
2023-05-14T03:41:40.360Z,43.40
2023-05-14T03:43:42.328Z,37.78
2023-05-14T03:45:44.523Z,34.55
2023-05-14T03:47:46.593Z,41.17
2023-05-14T03:49:50.378Z,40.13
2023-05-14T03:51:52.422Z,46.22
2023-05-14T03:53:54.531Z,34.58
2023-05-14T03:55:56.785Z,40.50
2023-05-14T03:58:02.585Z,40.92
2023-05-14T04:00:05.347Z,37.88
2023-05-14T04:02:08.062Z,48.05
2023-05-14T04:04:10.582Z,46.97
2023-05-14T04:06:14.414Z,35.58
2023-05-14T04:08:16.672Z,38.03
2023-05-14T04:10:18.759Z,39.67
2023-05-14T04:12:20.852Z,37.15
2023-05-14T04:14:22.843Z,35.20
2023-05-14T04:16:24.872Z,36.58
2023-05-14T04:18:26.965Z,41.63
2023-05-14T04:20:29.089Z,40.88
2023-05-14T04:22:32.652Z,41.75
2023-05-14T04:24:34.705Z,40.40
2023-05-14T04:26:36.880Z,39.85
2023-05-14T04:28:38.977Z,35.35
2023-05-14T04:30:41.002Z,39.72
2023-05-14T04:32:43.129Z,44.13
2023-05-14T04:34:46.882Z,42.92
2023-05-14T04:36:52.179Z,42.70
2023-05-14T04:38:56.009Z,48.20
2023-05-14T04:40:58.844Z,38.30
2023-05-14T04:43:00.891Z,44.90
2023-05-14T04:45:06.866Z,41.35
2023-05-14T04:47:09.640Z,50.53
2023-05-14T04:49:11.773Z,36.60
2023-05-14T04:51:13.724Z,43.00
2023-05-14T04:53:15.780Z,41.72
2023-05-14T04:55:19.177Z,43.67
2023-05-14T04:57:21.766Z,41.28
2023-05-14T04:59:23.809Z,47.70
2023-05-14T05:01:25.962Z,43.80
2023-05-14T05:03:28.107Z,47.92
2023-05-14T05:05:30.277Z,42.28
2023-05-14T05:07:32.219Z,44.03
2023-05-14T05:09:34.288Z,45.45
2023-05-14T05:11:38.826Z,40.13
2023-05-14T05:13:40.972Z,39.92
2023-05-14T05:15:43.042Z,45.38
2023-05-14T05:17:45.245Z,41.90
2023-05-14T05:19:48.010Z,43.80
2023-05-14T05:21:50.138Z,44.60
2023-05-14T05:23:52.260Z,46.83
2023-05-14T05:25:54.220Z,42.55
2023-05-14T05:27:57.696Z,44.33
2023-05-14T05:30:01.133Z,49.30
2023-05-14T05:32:03.211Z,42.35
2023-05-14T05:34:05.244Z,39.75
2023-05-14T05:36:08.611Z,43.85
2023-05-14T05:38:10.562Z,42.28
2023-05-14T05:40:14.402Z,41.75
2023-05-14T05:42:16.641Z,40.95
2023-05-14T05:44:20.068Z,47.65
2023-05-14T05:46:22.192Z,40.25
2023-05-14T05:48:24.402Z,43.97
2023-05-14T05:50:26.666Z,51.50
2023-05-14T05:52:28.762Z,43.33
2023-05-14T05:54:32.328Z,40.35
2023-05-14T05:56:34.367Z,41.80
2023-05-14T05:58:36.330Z,47.42
2023-05-14T06:00:39.753Z,42.95
2023-05-14T06:02:42.203Z,45.10
2023-05-14T06:04:44.350Z,40.25
2023-05-14T06:06:46.409Z,46.75
2023-05-14T06:08:48.484Z,37.92
2023-05-14T06:10:50.515Z,44.83
2023-05-14T06:12:52.880Z,42.65
2023-05-14T06:14:57.698Z,39.60
2023-05-14T06:17:01.237Z,47.67
2023-05-14T06:19:03.402Z,40.50
2023-05-14T06:21:05.971Z,38.50
2023-05-14T06:23:08.161Z,38.90
2023-05-14T06:25:11.177Z,39.83
2023-05-14T06:27:13.156Z,42.97
2023-05-14T06:29:15.170Z,34.30
2023-05-14T06:31:17.770Z,45.20
2023-05-14T06:33:29.544Z,43.35
2023-05-14T06:35:32.917Z,36.90
2023-05-14T06:37:34.942Z,40.80
2023-05-14T06:39:37.733Z,39.78
2023-05-14T06:41:39.692Z,37.42
2023-05-14T06:43:41.715Z,41.08
2023-05-14T06:45:44.070Z,40.53
2023-05-14T06:47:46.099Z,34.67
2023-05-14T06:49:49.392Z,33.72
2023-05-14T06:51:52.209Z,39.33
2023-05-14T06:53:55.708Z,35.85
2023-05-14T06:55:57.961Z,39.03
2023-05-14T06:57:59.975Z,33.08
2023-05-14T07:00:03.704Z,40.95
2023-05-14T07:02:06.084Z,40.30
2023-05-14T07:04:08.201Z,41.75
2023-05-14T07:06:13.567Z,39.13
2023-05-14T07:08:15.729Z,41.08
2023-05-14T07:10:17.702Z,42.70
2023-05-14T07:12:20.089Z,38.85
2023-05-14T07:14:22.314Z,47.50
2023-05-14T07:16:24.278Z,40.22
2023-05-14T07:18:26.291Z,42.50
2023-05-14T07:20:28.329Z,46.65
2023-05-14T07:22:31.788Z,56.00
2023-05-14T07:24:33.733Z,41.22
2023-05-14T07:26:35.692Z,48.47
2023-05-14T07:28:37.659Z,45.50
2023-05-14T07:30:39.743Z,45.55
2023-05-14T07:32:41.738Z,43.63
2023-05-14T07:34:44.216Z,39.28
2023-05-14T07:36:46.807Z,38.47
2023-05-14T07:38:50.179Z,42.20
2023-05-14T07:40:52.207Z,48.20
2023-05-14T07:42:54.230Z,43.28
2023-05-14T07:44:56.368Z,49.30
2023-05-14T07:46:58.420Z,54.58
2023-05-14T07:49:00.434Z,47.78
2023-05-14T07:51:02.683Z,48.30
2023-05-14T07:53:05.057Z,50.00
2023-05-14T07:55:09.496Z,53.97
2023-05-14T07:57:11.496Z,50.58
2023-05-14T07:59:13.540Z,48.25
2023-05-14T08:01:16.287Z,44.70
2023-05-14T08:03:18.537Z,47.83
2023-05-14T08:05:20.604Z,44.05
2023-05-14T08:07:22.664Z,42.92
2023-05-14T08:09:24.804Z,41.47
2023-05-14T08:11:28.096Z,43.55
2023-05-14T08:13:30.086Z,45.67
2023-05-14T08:15:32.023Z,43.78
2023-05-14T08:17:34.080Z,39.13
2023-05-14T08:19:35.984Z,49.30
2023-05-14T08:21:37.949Z,50.20
2023-05-14T08:23:39.924Z,53.42
2023-05-14T08:25:41.928Z,50.72
2023-05-14T08:27:45.733Z,47.92
2023-05-14T08:29:47.771Z,46.05
2023-05-14T08:31:51.136Z,45.83
2023-05-14T08:33:53.117Z,47.15
2023-05-14T08:35:56.095Z,45.15
2023-05-14T08:37:58.193Z,50.72
2023-05-14T08:40:00.280Z,46.10
2023-05-14T08:42:05.841Z,43.38
2023-05-14T08:44:13.662Z,46.15
2023-05-14T08:46:17.606Z,45.03
2023-05-14T08:48:22.612Z,40.78
2023-05-14T08:52:28.111Z,36.97
2023-05-14T08:54:32.456Z,42.42
2023-05-14T08:56:34.684Z,37.47
2023-05-14T08:58:36.800Z,34.65
2023-05-14T09:00:40.769Z,34.67
2023-05-14T09:02:47.789Z,34.42
2023-05-14T09:05:01.499Z,34.45
2023-05-14T09:07:04.145Z,37.05
2023-05-14T09:09:06.966Z,37.78
2023-05-14T09:11:09.304Z,37.60
2023-05-14T09:13:11.411Z,34.45
2023-05-14T09:15:13.391Z,39.63
2023-05-14T09:17:17.314Z,38.78
2023-05-14T09:19:20.512Z,40.55
2023-05-14T09:21:23.298Z,41.45
2023-05-14T09:23:26.348Z,39.92
2023-05-14T09:25:32.033Z,39.90
2023-05-14T09:27:35.007Z,39.60
2023-05-14T09:29:37.226Z,37.35
2023-05-14T09:31:39.401Z,34.00
2023-05-14T09:33:43.100Z,37.53
2023-05-14T09:35:45.168Z,39.10
2023-05-14T09:37:48.557Z,42.30
2023-05-14T09:39:50.949Z,40.78
2023-05-14T09:41:53.028Z,38.55
2023-05-14T09:43:56.906Z,43.63
2023-05-14T09:45:59.004Z,42.05
2023-05-14T09:48:01.693Z,39.63
2023-05-14T09:50:06.282Z,38.55
2023-05-14T09:52:08.431Z,34.80
2023-05-14T09:54:10.682Z,36.53
2023-05-14T09:56:12.832Z,30.15
2023-05-14T09:58:15.007Z,32.67
2023-05-14T10:00:17.449Z,34.45
2023-05-14T10:02:23.718Z,29.02
2023-05-14T10:04:26.097Z,34.53
2023-05-14T10:06:36.830Z,36.95
2023-05-14T10:08:43.584Z,39.35
2023-05-14T10:10:45.754Z,37.00
2023-05-14T10:12:52.438Z,36.28
2023-05-14T10:14:57.535Z,32.22
2023-05-14T10:17:01.717Z,33.42
2023-05-14T10:19:08.482Z,33.67
2023-05-14T10:21:11.688Z,35.38
2023-05-14T10:23:15.080Z,32.25
2023-05-14T10:25:17.977Z,38.40
2023-05-14T10:27:21.579Z,38.53
2023-05-14T10:29:33.389Z,36.80
2023-05-14T10:31:49.861Z,34.38
2023-05-14T10:33:52.185Z,35.47
2023-05-14T10:35:57.660Z,34.28
2023-05-14T10:37:59.671Z,30.08
2023-05-14T10:40:06.227Z,29.60
2023-05-14T10:42:10.641Z,28.90
2023-05-14T10:44:13.363Z,35.63
2023-05-14T10:46:15.525Z,33.15
2023-05-14T10:48:17.791Z,33.03
2023-05-14T10:50:20.578Z,28.67
2023-05-14T10:52:24.451Z,27.25
2023-05-14T10:54:28.652Z,32.72
2023-05-14T10:56:33.409Z,34.00
2023-05-14T10:58:37.268Z,29.17
2023-05-14T11:00:39.668Z,32.70
2023-05-14T11:02:45.275Z,31.00
2023-05-14T11:04:53.198Z,27.80
2023-05-14T11:06:56.724Z,32.03
2023-05-14T11:09:01.441Z,31.27
2023-05-14T11:11:03.482Z,32.63
2023-05-14T11:13:07.311Z,26.88
2023-05-14T11:15:11.094Z,35.95
2023-05-14T11:17:13.536Z,22.05
2023-05-14T11:19:18.078Z,25.95
2023-05-14T11:21:20.229Z,24.80
2023-05-14T11:23:25.280Z,30.73
2023-05-14T11:25:27.376Z,26.83
2023-05-14T11:27:31.907Z,26.02
2023-05-14T11:29:35.622Z,25.10
2023-05-14T11:31:37.725Z,26.02
2023-05-14T11:33:40.661Z,22.67
2023-05-14T11:35:45.348Z,26.95
2023-05-14T11:37:51.883Z,26.00
2023-05-14T11:39:55.883Z,26.40
2023-05-14T11:41:58.190Z,26.23
2023-05-14T11:44:00.292Z,31.33
2023-05-14T11:46:03.706Z,25.52
2023-05-14T11:48:14.970Z,28.73
2023-05-14T11:50:17.237Z,26.10
2023-05-14T11:52:19.666Z,25.67
2023-05-14T11:54:21.701Z,27.38
2023-05-14T11:56:23.877Z,25.55
2023-05-14T11:58:26.384Z,26.83
2023-05-14T12:00:28.491Z,25.40
2023-05-14T12:02:32.115Z,25.45
2023-05-14T12:04:34.302Z,27.50
2023-05-14T12:06:36.490Z,24.25
2023-05-14T12:08:38.572Z,19.77
2023-05-14T12:10:42.463Z,22.65
2023-05-14T12:12:47.266Z,23.67
2023-05-14T12:14:50.571Z,23.27
2023-05-14T12:16:52.740Z,19.02
2023-05-14T12:19:00.931Z,22.73
2023-05-14T12:21:03.946Z,25.65
2023-05-14T12:23:07.720Z,23.35
2023-05-14T12:25:13.453Z,24.88
2023-05-14T12:27:15.544Z,22.70
2023-05-14T12:29:17.708Z,25.00
2023-05-14T12:31:28.215Z,20.63
2023-05-14T12:33:30.374Z,27.63
2023-05-14T12:35:33.993Z,27.25
2023-05-14T12:37:37.386Z,20.17
2023-05-14T12:39:39.447Z,21.98
2023-05-14T12:41:41.503Z,24.23
2023-05-14T12:43:44.434Z,21.02
2023-05-14T12:45:46.428Z,22.02
2023-05-14T12:47:48.436Z,21.52
2023-05-14T12:49:50.825Z,19.67
2023-05-14T12:52:07.930Z,24.25
2023-05-14T12:54:16.241Z,27.27
2023-05-14T12:56:18.610Z,25.38
2023-05-14T12:58:20.750Z,19.63
2023-05-14T13:00:23.397Z,19.65
2023-05-14T13:02:25.566Z,24.25
2023-05-14T13:04:27.661Z,20.38
2023-05-14T13:06:29.628Z,22.63
2023-05-14T13:08:32.956Z,20.35
2023-05-14T13:10:35.356Z,17.35
2023-05-14T13:12:37.302Z,25.90
2023-05-14T13:14:39.354Z,20.73
2023-05-14T13:16:41.519Z,23.88
2023-05-14T13:18:43.728Z,19.92
2023-05-14T13:20:47.785Z,18.63
2023-05-14T13:22:49.902Z,22.73
2023-05-14T13:24:53.558Z,15.80
2023-05-14T13:26:55.502Z,17.35
2023-05-14T13:28:57.581Z,23.30
2023-05-14T13:31:05.883Z,20.90
2023-05-14T13:33:08.079Z,20.63
2023-05-14T13:35:10.318Z,19.88
2023-05-14T13:37:12.412Z,19.67
2023-05-14T13:39:14.743Z,25.90
2023-05-14T13:41:18.224Z,21.17
2023-05-14T13:43:20.813Z,18.45
2023-05-14T13:45:22.915Z,17.30
2023-05-14T13:47:25.494Z,17.02
2023-05-14T13:49:27.485Z,14.68
2023-05-14T13:51:29.445Z,11.73
2023-05-14T13:53:31.441Z,13.82
2023-05-14T13:55:33.353Z,13.60
2023-05-14T13:57:37.573Z,14.30
2023-05-14T13:59:39.600Z,15.05
2023-05-14T14:01:43.284Z,16.20
2023-05-14T14:03:45.293Z,13.25
2023-05-14T14:05:47.737Z,19.48
2023-05-14T14:07:51.537Z,22.35
2023-05-14T14:09:55.069Z,20.13
2023-05-14T14:11:57.092Z,10.95
2023-05-14T14:14:00.560Z,16.33
2023-05-14T14:16:05.467Z,11.93
2023-05-14T14:20:10.343Z,23.65
2023-05-14T14:22:13.981Z,17.83
2023-05-14T14:24:16.133Z,14.23
2023-05-14T14:26:18.099Z,12.95
2023-05-14T14:28:20.261Z,18.15
2023-05-14T14:30:23.664Z,15.00
2023-05-14T14:32:25.862Z,13.50
2023-05-14T14:34:27.910Z,11.50
2023-05-14T14:36:30.687Z,16.08
2023-05-14T14:38:32.762Z,13.18
2023-05-14T14:40:35.153Z,13.63
2023-05-14T14:42:37.980Z,18.75
2023-05-14T14:44:39.998Z,25.13
2023-05-14T14:46:43.525Z,11.13
2023-05-14T14:48:45.785Z,15.50
2023-05-14T14:50:47.977Z,13.43
2023-05-14T14:52:50.000Z,37.53
2023-05-14T14:54:52.268Z,21.73
2023-05-14T14:56:54.326Z,10.68
2023-05-14T14:58:56.340Z,11.20
2023-05-14T15:00:58.859Z,9.98
2023-05-14T15:03:02.345Z,12.20
2023-05-14T15:05:05.465Z,13.10
2023-05-14T15:07:07.509Z,9.70
2023-05-14T15:09:09.585Z,11.52
2023-05-14T15:11:11.675Z,12.23
2023-05-14T15:13:14.050Z,9.32
2023-05-14T15:15:16.368Z,8.65
2023-05-14T15:17:18.260Z,10.68
2023-05-14T15:19:21.880Z,9.60
2023-05-14T15:21:23.889Z,19.65
2023-05-14T15:23:25.879Z,14.05
2023-05-14T15:25:27.900Z,11.95
2023-05-14T15:27:29.920Z,11.23
2023-05-14T15:29:32.190Z,9.15
2023-05-14T15:31:34.635Z,12.30
2023-05-14T15:33:36.684Z,13.15
2023-05-14T15:35:40.012Z,8.70
2023-05-14T15:37:44.187Z,13.25
2023-05-14T15:39:46.552Z,8.35
2023-05-14T15:41:48.596Z,8.77
2023-05-14T15:43:50.911Z,11.05
2023-05-14T15:45:52.996Z,9.60
2023-05-14T15:47:55.374Z,13.88
2023-05-14T15:49:57.453Z,12.70
2023-05-14T15:52:02.649Z,11.50
2023-05-14T15:54:04.874Z,8.75
2023-05-14T15:56:08.044Z,7.35
2023-05-14T15:58:10.414Z,5.03
2023-05-14T16:00:13.387Z,7.85
2023-05-14T16:02:15.976Z,9.27
2023-05-14T16:04:18.168Z,6.18
2023-05-14T16:06:20.243Z,16.30
2023-05-14T16:08:23.528Z,13.30
2023-05-14T16:10:25.787Z,8.63
2023-05-14T16:12:28.151Z,9.05
2023-05-14T16:14:30.380Z,8.00
2023-05-14T16:16:32.494Z,11.63
2023-05-14T16:18:34.541Z,10.85
2023-05-14T16:20:36.524Z,8.63
2023-05-14T16:22:38.593Z,12.00
2023-05-14T16:24:41.995Z,11.23
2023-05-14T16:26:44.212Z,6.93
2023-05-14T16:28:46.158Z,4.93
2023-05-14T16:30:48.106Z,5.43
2023-05-14T16:32:50.220Z,8.63
2023-05-14T16:34:52.472Z,6.38
2023-05-14T16:36:54.535Z,7.95
2023-05-14T16:39:07.464Z,8.63
2023-05-14T16:41:11.668Z,13.13
2023-05-14T16:43:13.664Z,9.35
2023-05-14T16:45:15.960Z,8.07
2023-05-14T16:47:20.854Z,5.88
2023-05-14T16:51:24.925Z,7.88
2023-05-14T16:53:26.905Z,7.03
2023-05-14T16:55:29.242Z,8.02
2023-05-14T16:57:32.575Z,7.55
2023-05-14T16:59:34.538Z,6.75
2023-05-14T17:01:36.526Z,8.57
2023-05-14T17:03:38.520Z,7.78
2023-05-14T17:05:40.913Z,8.13
2023-05-14T17:07:43.047Z,6.25
2023-05-14T17:09:45.126Z,10.50
2023-05-14T17:11:47.143Z,8.40
2023-05-14T17:13:50.443Z,7.55
2023-05-14T17:15:52.669Z,7.22
2023-05-14T17:17:54.966Z,8.55
2023-05-14T17:19:57.115Z,7.90
2023-05-14T17:21:59.486Z,7.82
2023-05-14T17:24:01.481Z,8.75
2023-05-14T17:26:03.674Z,5.90
2023-05-14T17:28:05.959Z,8.45
2023-05-14T17:30:10.422Z,8.43
2023-05-14T17:32:12.447Z,6.25
2023-05-14T17:34:14.552Z,5.53
2023-05-14T17:36:16.592Z,8.35
2023-05-14T17:38:18.642Z,14.18
2023-05-14T17:40:20.745Z,10.25
2023-05-14T17:42:22.701Z,8.73
2023-05-14T17:44:24.971Z,7.88
2023-05-14T17:46:28.299Z,8.93
2023-05-14T17:48:30.312Z,6.85
2023-05-14T17:50:32.384Z,9.88
2023-05-14T17:52:34.342Z,6.88
2023-05-14T17:54:36.438Z,7.13
2023-05-14T17:56:38.607Z,8.00
2023-05-14T17:58:41.314Z,11.98
2023-05-14T18:00:44.017Z,11.27
2023-05-14T18:02:47.750Z,8.52
2023-05-14T18:04:49.853Z,10.40
2023-05-14T18:06:51.937Z,14.30
2023-05-14T18:08:54.061Z,11.02
2023-05-14T18:10:56.077Z,9.20
2023-05-14T18:12:58.163Z,9.43
2023-05-14T18:15:00.195Z,7.80
2023-05-14T18:17:02.348Z,7.75
2023-05-14T18:19:05.842Z,9.93
2023-05-14T18:21:07.897Z,11.23
2023-05-14T18:23:10.188Z,9.65
2023-05-14T18:25:13.935Z,9.45
2023-05-14T18:27:16.052Z,7.68
2023-05-14T18:29:18.043Z,11.02
2023-05-14T18:31:20.094Z,9.90
2023-05-14T18:33:22.209Z,10.00
2023-05-14T18:35:25.754Z,6.57
2023-05-14T18:37:28.209Z,6.07
2023-05-14T18:39:30.169Z,8.93
2023-05-14T18:41:32.142Z,8.13
2023-05-14T18:43:34.156Z,9.70
2023-05-14T18:45:36.181Z,10.57
2023-05-14T18:47:39.666Z,10.73
2023-05-14T18:49:42.422Z,8.52
2023-05-14T18:51:45.954Z,12.02
2023-05-14T18:53:47.998Z,11.20
2023-05-14T18:55:50.031Z,10.90
2023-05-14T18:57:52.039Z,8.70
2023-05-14T18:59:54.499Z,11.43
2023-05-14T19:01:56.631Z,9.63
2023-05-14T19:03:58.872Z,12.02
2023-05-14T19:06:01.096Z,8.10
2023-05-14T19:08:04.632Z,7.65
2023-05-14T19:10:08.664Z,10.55
2023-05-14T19:12:10.743Z,13.07
2023-05-14T19:14:12.764Z,10.68
2023-05-14T19:16:14.864Z,14.73
2023-05-14T19:18:17.665Z,7.88
2023-05-14T19:20:19.803Z,9.05
2023-05-14T19:22:21.866Z,9.68
2023-05-14T19:24:25.230Z,9.40
2023-05-14T19:26:27.333Z,8.10
2023-05-14T19:28:29.767Z,9.43
2023-05-14T19:30:31.785Z,8.50
2023-05-14T19:32:33.744Z,7.72
2023-05-14T19:34:36.132Z,18.40
2023-05-14T19:36:38.144Z,7.85
2023-05-14T19:38:40.324Z,6.65
2023-05-14T19:40:45.025Z,8.18
2023-05-14T19:44:49.003Z,8.23
2023-05-14T19:46:52.880Z,10.30
2023-05-14T19:48:55.013Z,9.00
2023-05-14T19:50:57.460Z,8.75
2023-05-14T19:52:59.447Z,7.55
2023-05-14T19:55:01.541Z,11.27
2023-05-14T19:57:05.755Z,11.80
2023-05-14T19:59:07.712Z,6.95
2023-05-14T20:01:09.736Z,9.02
2023-05-14T20:03:11.923Z,9.73
2023-05-14T20:05:14.013Z,10.75
2023-05-14T20:07:16.119Z,10.07
2023-05-14T20:09:18.071Z,8.32
2023-05-14T20:11:20.005Z,12.18
2023-05-14T20:13:25.150Z,7.45
2023-05-14T20:15:27.307Z,5.53
2023-05-14T20:17:29.821Z,6.30
2023-05-14T20:19:32.217Z,7.97
2023-05-14T20:21:34.317Z,6.82
2023-05-14T20:23:36.619Z,8.68
2023-05-14T20:25:38.764Z,9.50
2023-05-14T20:27:41.271Z,12.35
2023-05-14T20:29:46.589Z,12.68
2023-05-14T20:31:48.612Z,6.57
2023-05-14T20:33:50.684Z,6.78
2023-05-14T20:35:53.459Z,11.73
2023-05-14T20:37:56.246Z,12.75
2023-05-14T20:39:58.608Z,9.10
2023-05-14T20:42:00.969Z,7.85
2023-05-14T20:44:03.020Z,11.50
2023-05-14T20:46:07.276Z,8.50
2023-05-14T20:48:11.465Z,9.77
2023-05-14T20:50:14.968Z,9.90
2023-05-14T20:52:17.682Z,6.93
2023-05-14T20:54:19.724Z,8.32
2023-05-14T20:56:22.531Z,8.73
2023-05-14T20:58:24.999Z,9.57
2023-05-14T21:00:26.910Z,7.78
2023-05-14T21:02:30.455Z,8.32
2023-05-14T21:04:33.750Z,6.45
2023-05-14T21:06:35.840Z,11.63
2023-05-14T21:08:39.231Z,9.07
2023-05-14T21:10:41.248Z,10.20
2023-05-14T21:12:44.710Z,11.82
2023-05-14T21:14:47.023Z,10.18
2023-05-14T21:16:49.147Z,8.52
2023-05-14T21:18:52.608Z,9.93
2023-05-14T21:20:54.604Z,12.80
2023-05-14T21:22:56.595Z,8.82
2023-05-14T21:24:58.509Z,11.43
2023-05-14T21:27:00.483Z,11.98
2023-05-14T21:29:03.469Z,9.32
2023-05-14T21:31:05.481Z,9.88
2023-05-14T21:33:07.509Z,9.15
2023-05-14T21:35:11.240Z,11.23
2023-05-14T21:37:13.176Z,14.80
2023-05-14T21:39:15.316Z,8.63
2023-05-14T21:41:17.395Z,10.05
2023-05-14T21:43:19.475Z,10.07
2023-05-14T21:45:23.501Z,11.38
2023-05-14T21:47:26.850Z,9.13
2023-05-14T21:49:28.896Z,12.95
2023-05-14T21:51:33.172Z,11.05
2023-05-14T21:53:35.114Z,11.02
2023-05-14T21:55:37.277Z,11.05
2023-05-14T21:57:39.314Z,10.98
2023-05-14T21:59:41.386Z,10.20
2023-05-14T22:05:50.421Z,11.68
2023-05-14T22:07:53.712Z,9.98
2023-05-14T22:09:55.943Z,11.27
2023-05-14T22:11:58.495Z,12.63
2023-05-14T22:14:00.780Z,12.75
2023-05-14T22:16:12.116Z,9.43
2023-05-14T22:18:15.676Z,19.40
2023-05-14T22:20:17.676Z,13.02
2023-05-14T22:22:19.639Z,9.98
2023-05-14T22:24:22.988Z,11.65
2023-05-14T22:26:24.997Z,10.30
2023-05-14T22:28:27.062Z,9.95
2023-05-14T22:30:29.123Z,11.00
2023-05-14T22:32:31.077Z,10.05
2023-05-14T22:34:33.168Z,9.82
2023-05-14T22:36:35.258Z,10.65
2023-05-14T22:38:37.314Z,9.23
2023-05-14T22:40:40.762Z,11.25
2023-05-14T22:42:42.781Z,13.13
2023-05-14T22:44:45.113Z,11.40
2023-05-14T22:46:47.229Z,11.18
2023-05-14T22:48:49.342Z,10.48
2023-05-14T22:50:51.850Z,11.15
2023-05-14T22:52:53.836Z,12.05
2023-05-14T22:54:55.929Z,14.70
2023-05-14T22:56:59.300Z,9.80
2023-05-14T22:59:01.321Z,14.48
2023-05-14T23:01:03.642Z,12.80
2023-05-14T23:03:06.024Z,15.05
2023-05-14T23:05:08.982Z,14.43
2023-05-14T23:07:10.979Z,13.45
2023-05-14T23:09:13.401Z,14.52
2023-05-14T23:11:15.405Z,18.80
2023-05-14T23:13:19.319Z,12.90
2023-05-14T23:15:21.368Z,14.02
2023-05-14T23:17:23.403Z,16.55
2023-05-14T23:19:26.451Z,11.95
2023-05-14T23:21:28.478Z,13.05
2023-05-14T23:23:30.589Z,16.42
2023-05-14T23:25:32.799Z,13.38
2023-05-14T23:27:35.078Z,16.52
2023-05-14T23:29:38.434Z,15.50
2023-05-14T23:31:41.221Z,15.02
2023-05-14T23:33:44.653Z,13.50
2023-05-14T23:35:46.704Z,14.85
2023-05-14T23:37:50.867Z,15.63
2023-05-14T23:39:53.225Z,15.60
2023-05-14T23:41:55.220Z,14.15
2023-05-14T23:43:57.218Z,19.75
2023-05-14T23:46:00.944Z,21.77
2023-05-14T23:48:03.377Z,14.68
2023-05-14T23:50:06.058Z,13.63
2023-05-14T23:52:08.183Z,23.48
2023-05-14T23:54:10.219Z,16.95
2023-05-14T23:56:12.289Z,18.52
2023-05-14T23:58:14.439Z,17.58
